Time;durP1;ratioP1;P1;durP2;ratioP2;P2;SDS_P1;SDS_P2;PMS_P1;PMS_P2;Temp;Humidity;BMP_temperature;BMP_pressure;BME280_temperature;BME280_humidity;BME280_pressure;Samples;Min_cycle;Max_cycle;Signal;HPM_P1;HPM_P2
2023/07/06 00:02:23;;;;;;;2.27;1.30;;;20.40;99.90;;;;;;6250024;28;20315;-62
2023/07/06 00:05:29;;;;;;;2.13;1.60;;;20.50;99.90;;;;;;6249918;28;20745;-62
2023/07/06 00:08:32;;;;;;;1.87;1.60;;;20.80;99.90;;;;;;6249622;28;20235;-62
2023/07/06 00:11:37;;;;;;;3.90;2.00;;;21.10;99.90;;;;;;6249870;28;20235;-62
2023/07/06 00:14:40;;;;;;;2.27;1.20;;;21.10;99.90;;;;;;6249521;28;20228;-62
2023/07/06 00:17:43;;;;;;;2.00;1.27;;;21.00;99.90;;;;;;6249282;28;20239;-62
2023/07/06 00:20:49;;;;;;;2.50;1.10;;;21.00;99.90;;;;;;6249779;28;20228;-62
2023/07/06 00:23:52;;;;;;;2.13;1.13;;;21.10;99.90;;;;;;6249325;28;20228;-62
2023/07/06 00:26:56;;;;;;;2.53;1.10;;;21.30;99.90;;;;;;6248496;28;20242;-62
2023/07/06 00:30:15;;;;;;;1.77;1.20;;;21.30;99.90;;;;;;6249320;28;20228;-62
2023/07/06 00:33:18;;;;;;;4.13;1.53;;;21.20;99.90;;;;;;6251205;28;20314;-63
2023/07/06 00:36:22;;;;;;;2.70;1.20;;;21.00;99.90;;;;;;6273867;28;20516;-62
2023/07/06 00:39:26;;;;;;;1.43;1.20;;;20.70;99.90;;;;;;6305961;22;20709;-62
2023/07/06 00:42:30;;;;;;;2.70;1.30;;;20.50;99.90;;;;;;6298510;28;20376;-62
2023/07/06 00:45:34;;;;;;;1.77;1.20;;;20.40;99.90;;;;;;6298116;28;20227;-62
2023/07/06 00:48:44;;;;;;;2.53;1.50;;;20.20;99.90;;;;;;6321354;28;20230;-62
2023/07/06 00:51:49;;;;;;;2.03;1.30;;;20.10;99.90;;;;;;6328581;28;20682;-63
2023/07/06 00:54:52;;;;;;;0.93;0.93;;;19.90;99.90;;;;;;6329246;28;20226;-62
2023/07/06 00:57:59;;;;;;;2.67;1.80;;;19.80;99.90;;;;;;6327936;28;20238;-62
2023/07/06 01:01:06;;;;;;;1.97;1.60;;;19.70;99.90;;;;;;6328415;28;20232;-62
2023/07/06 01:04:11;;;;;;;2.03;1.53;;;19.60;99.90;;;;;;6328254;28;20230;-62
2023/07/06 01:07:20;;;;;;;1.60;1.40;;;19.50;99.90;;;;;;6328785;28;20301;-62
2023/07/06 01:10:24;;;;;;;3.00;1.80;;;19.50;99.90;;;;;;6318757;28;20253;-62
2023/07/06 01:13:27;;;;;;;1.57;1.43;;;19.40;99.90;;;;;;6328295;28;20256;-62
2023/07/06 01:16:36;;;;;;;2.30;1.53;;;19.30;99.90;;;;;;6328723;28;20276;-62
2023/07/06 01:20:04;;;;;;;1.60;1.50;;;19.20;99.90;;;;;;6328136;28;20570;-62
2023/07/06 01:23:40;;;;;;;1.60;1.33;;;19.20;99.90;;;;;;6323627;28;20307;-62
2023/07/06 01:27:05;;;;;;;1.53;1.20;;;19.10;99.90;;;;;;6327718;28;20218;-63
2023/07/06 01:30:39;;;;;;;1.60;1.50;;;19.10;99.90;;;;;;6327904;28;20289;-63
2023/07/06 01:33:52;;;;;;;1.60;1.00;;;19.10;99.90;;;;;;6327684;28;20238;-62
2023/07/06 01:37:02;;;;;;;2.43;1.13;;;19.20;99.90;;;;;;6327285;28;20234;-62
2023/07/06 01:40:09;;;;;;;2.70;1.40;;;19.10;99.90;;;;;;6327887;28;20664;-62
2023/07/06 01:43:13;;;;;;;2.07;1.47;;;19.20;99.90;;;;;;6327272;28;20222;-63
2023/07/06 01:46:17;;;;;;;1.90;1.53;;;19.20;99.90;;;;;;6327558;28;20622;-63
2023/07/06 01:49:22;;;;;;;1.90;1.77;;;19.30;99.90;;;;;;6328754;28;20238;-63
2023/07/06 01:52:34;;;;;;;8.00;1.60;;;19.30;99.90;;;;;;6327849;28;20229;-63
2023/07/06 01:55:43;;;;;;;2.47;1.50;;;19.30;99.90;;;;;;6327387;28;20230;-63
2023/07/06 01:58:51;;;;;;;2.33;1.80;;;19.30;99.90;;;;;;6326159;28;20242;-62
2023/07/06 02:02:00;;;;;;;2.73;1.63;;;19.30;99.90;;;;;;6326696;28;20603;-62
2023/07/06 02:05:08;;;;;;;1.70;1.50;;;19.20;99.90;;;;;;6326578;28;20242;-62
2023/07/06 02:08:12;;;;;;;2.00;1.80;;;19.20;99.90;;;;;;6326670;28;20236;-62
2023/07/06 02:11:18;;;;;;;2.83;1.90;;;19.20;99.90;;;;;;6326790;28;20222;-63
2023/07/06 02:14:22;;;;;;;1.73;1.63;;;19.20;99.90;;;;;;6322298;28;20236;-62
2023/07/06 02:17:26;;;;;;;3.03;1.93;;;19.20;99.90;;;;;;6326330;28;20245;-62
2023/07/06 02:20:30;;;;;;;2.30;1.53;;;19.20;99.90;;;;;;6326459;28;20226;-62
2023/07/06 02:23:34;;;;;;;1.90;1.37;;;19.20;99.90;;;;;;6326674;28;20305;-63
2023/07/06 02:26:37;;;;;;;2.17;1.40;;;19.20;99.90;;;;;;6326374;28;20242;-63
2023/07/06 02:29:41;;;;;;;2.67;1.50;;;19.20;99.90;;;;;;6326165;28;20542;-63
2023/07/06 02:32:46;;;;;;;2.47;1.70;;;19.10;99.90;;;;;;6326114;28;20308;-63
2023/07/06 02:35:51;;;;;;;3.13;1.30;;;19.20;99.90;;;;;;6326143;28;20226;-63
2023/07/06 02:38:55;;;;;;;2.20;1.97;;;19.10;99.90;;;;;;6325949;28;20239;-63
2023/07/06 02:41:58;;;;;;;4.93;1.60;;;19.10;99.90;;;;;;6326075;28;20252;-63
2023/07/06 02:45:01;;;;;;;2.50;1.47;;;19.10;99.90;;;;;;6325701;28;20241;-63
2023/07/06 02:48:05;;;;;;;5.03;2.03;;;19.20;99.90;;;;;;6325628;28;20222;-63
2023/07/06 02:51:09;;;;;;;2.00;1.63;;;19.30;99.90;;;;;;6325077;28;20226;-63
2023/07/06 02:54:15;;;;;;;1.87;1.40;;;19.30;99.90;;;;;;6325900;28;20285;-63
2023/07/06 02:57:18;;;;;;;3.03;1.73;;;19.40;99.90;;;;;;6324917;28;20709;-63
2023/07/06 03:00:23;;;;;;;1.90;1.63;;;19.30;99.90;;;;;;6325483;28;20216;-63
2023/07/06 03:03:27;;;;;;;2.17;1.77;;;19.30;99.90;;;;;;6325500;28;20233;-63
2023/07/06 03:06:31;;;;;;;4.10;2.00;;;19.30;99.90;;;;;;6325806;28;20226;-63
2023/07/06 03:09:35;;;;;;;1.90;1.80;;;19.30;99.90;;;;;;6325482;28;20222;-63
2023/07/06 03:12:38;;;;;;;1.93;1.77;;;19.20;99.90;;;;;;6324824;28;20240;-63
2023/07/06 03:15:43;;;;;;;3.80;2.10;;;19.20;99.90;;;;;;6325359;28;20308;-63
2023/07/06 03:18:47;;;;;;;2.43;2.13;;;19.20;99.90;;;;;;6315607;28;20236;-63
2023/07/06 03:21:52;;;;;;;4.83;2.23;;;19.10;99.90;;;;;;6325496;28;20669;-63
2023/07/06 03:24:55;;;;;;;2.70;2.20;;;19.10;99.90;;;;;;6325467;28;20305;-63
2023/07/06 03:27:59;;;;;;;3.50;2.60;;;19.10;99.90;;;;;;6325039;28;20696;-63
2023/07/06 03:31:02;;;;;;;5.90;3.33;;;19.20;99.90;;;;;;6324574;28;20234;-63
2023/07/06 03:34:06;;;;;;;1.90;1.70;;;19.20;99.90;;;;;;6325644;28;20301;-62
2023/07/06 03:37:11;;;;;;;3.83;2.23;;;19.10;99.90;;;;;;6324784;28;20312;-62
2023/07/06 03:40:15;;;;;;;2.53;2.33;;;19.10;99.90;;;;;;6325452;28;20226;-63
2023/07/06 03:43:19;;;;;;;2.73;2.00;;;19.20;99.90;;;;;;6325492;28;20293;-63
2023/07/06 03:46:23;;;;;;;2.20;1.90;;;19.30;99.90;;;;;;6325246;28;20230;-63
2023/07/06 03:49:26;;;;;;;4.03;2.27;;;19.30;99.90;;;;;;6325062;28;20229;-62
2023/07/06 03:52:30;;;;;;;2.50;1.90;;;19.40;99.90;;;;;;6324901;28;20226;-62
2023/07/06 03:55:34;;;;;;;2.87;2.00;;;19.50;99.90;;;;;;6324424;28;20703;-62
2023/07/06 03:58:38;;;;;;;7.77;2.40;;;19.50;99.90;;;;;;6324460;28;20234;-63
2023/07/06 04:01:42;;;;;;;4.83;2.10;;;19.60;99.90;;;;;;6324786;28;20234;-63
2023/07/06 04:04:45;;;;;;;4.20;2.57;;;19.60;99.90;;;;;;6324778;28;20259;-63
2023/07/06 04:07:52;;;;;;;4.37;2.47;;;19.60;99.90;;;;;;6324236;28;20240;-63
2023/07/06 04:10:55;;;;;;;4.77;2.70;;;19.60;99.90;;;;;;6324674;28;20230;-63
2023/07/06 04:13:59;;;;;;;3.53;2.63;;;19.50;99.90;;;;;;6324362;28;20230;-63
2023/07/06 04:17:03;;;;;;;2.60;2.40;;;19.60;99.90;;;;;;6324040;28;20391;-63
2023/07/06 04:20:18;;;;;;;2.60;2.40;;;19.70;99.90;;;;;;6324164;28;20241;-63
2023/07/06 04:23:23;;;;;;;2.73;2.53;;;19.80;99.90;;;;;;6320202;28;20552;-63
2023/07/06 04:26:27;;;;;;;3.90;2.40;;;19.90;99.90;;;;;;6330101;28;20687;-62
2023/07/06 04:29:30;;;;;;;2.60;2.30;;;19.90;99.90;;;;;;6329506;28;20677;-62
2023/07/06 04:32:33;;;;;;;3.60;2.40;;;20.00;99.90;;;;;;6329468;28;20230;-61
2023/07/06 04:35:37;;;;;;;2.57;2.37;;;20.00;99.90;;;;;;6329108;28;20233;-61
2023/07/06 04:38:44;;;;;;;3.10;2.37;;;20.00;99.90;;;;;;6328458;28;20238;-61
2023/07/06 04:41:48;;;;;;;6.60;2.63;;;20.00;99.90;;;;;;6328845;28;20668;-61
2023/07/06 04:44:52;;;;;;;2.70;2.50;;;20.00;99.90;;;;;;6329036;28;20305;-61
2023/07/06 04:47:56;;;;;;;3.57;2.40;;;20.00;99.90;;;;;;6329007;28;20688;-61
2023/07/06 04:51:01;;;;;;;5.53;2.33;;;20.00;99.90;;;;;;6329150;28;20222;-62
2023/07/06 04:54:08;;;;;;;2.70;2.00;;;20.10;99.90;;;;;;6328698;28;20244;-63
2023/07/06 04:57:14;;;;;;;3.73;2.40;;;20.20;99.90;;;;;;6328424;28;20555;-63
2023/07/06 05:00:24;;;;;;;5.47;2.43;;;20.20;99.90;;;;;;6328384;28;20229;-63
2023/07/06 05:03:30;;;;;;;2.00;1.80;;;20.30;99.90;;;;;;6328753;28;20187;-62
2023/07/06 05:06:34;;;;;;;3.27;2.30;;;20.30;99.90;;;;;;6328524;28;20221;-62
2023/07/06 05:09:40;;;;;;;3.40;2.70;;;20.40;99.90;;;;;;6328915;28;20225;-62
2023/07/06 05:12:44;;;;;;;3.37;2.20;;;20.40;99.90;;;;;;6328285;28;20230;-62
2023/07/06 05:15:48;;;;;;;3.00;2.43;;;20.50;99.90;;;;;;6328728;28;20218;-62
2023/07/06 05:18:52;;;;;;;3.20;2.63;;;20.50;99.90;;;;;;6328314;28;20226;-62
2023/07/06 05:21:55;;;;;;;5.83;2.30;;;20.60;99.90;;;;;;6328049;28;20222;-62
2023/07/06 05:25:00;;;;;;;3.50;1.93;;;20.70;99.90;;;;;;6323520;28;20778;-62
2023/07/06 05:28:04;;;;;;;3.17;2.70;;;20.90;99.90;;;;;;6327894;28;20303;-62
2023/07/06 05:31:07;;;;;;;2.33;2.13;;;21.00;99.90;;;;;;6327591;28;20360;-62
2023/07/06 05:34:10;;;;;;;3.00;2.60;;;21.10;99.90;;;;;;6326792;28;20221;-62
2023/07/06 05:37:13;;;;;;;7.00;2.40;;;21.10;99.90;;;;;;6327591;28;20238;-62
2023/07/06 05:40:39;;;;;;;3.70;2.70;;;21.10;99.90;;;;;;6327542;28;20230;-63
2023/07/06 05:43:43;;;;;;;3.00;2.60;;;21.20;99.90;;;;;;6327794;28;20237;-62
2023/07/06 05:46:46;;;;;;;2.80;2.40;;;21.30;99.90;;;;;;6326786;28;20230;-63
2023/07/06 05:49:49;;;;;;;3.43;2.33;;;21.50;99.90;;;;;;6327212;28;20682;-62
2023/07/06 05:52:53;;;;;;;3.47;2.00;;;21.60;99.90;;;;;;6327011;28;20355;-62
2023/07/06 05:55:59;;;;;;;2.60;2.40;;;21.80;99.90;;;;;;6326962;28;20230;-62
2023/07/06 05:59:04;;;;;;;3.33;2.80;;;22.00;99.90;;;;;;6327156;28;20253;-63
2023/07/06 06:02:09;;;;;;;3.87;2.37;;;22.10;99.90;;;;;;6326236;28;20662;-63
2023/07/06 06:05:13;;;;;;;5.17;3.10;;;22.30;99.90;;;;;;6326485;28;20242;-63
2023/07/06 06:08:18;;;;;;;5.90;2.90;;;22.40;99.90;;;;;;6326221;28;20255;-63
2023/07/06 06:11:23;;;;;;;4.87;3.13;;;22.70;99.90;;;;;;6323570;28;20661;-63
2023/07/06 06:14:27;;;;;;;3.37;3.07;;;23.00;99.90;;;;;;6326152;28;20246;-64
2023/07/06 06:17:30;;;;;;;4.03;3.17;;;23.30;99.90;;;;;;6326030;28;20650;-64
2023/07/06 06:20:36;;;;;;;4.43;3.27;;;23.50;99.90;;;;;;6325529;28;20322;-64
2023/07/06 06:23:42;;;;;;;4.10;3.07;;;23.60;99.90;;;;;;6323157;28;20226;-64
2023/07/06 06:26:46;;;;;;;4.50;3.23;;;23.90;99.90;;;;;;6324439;28;20230;-64
2023/07/06 06:29:49;;;;;;;4.30;3.53;;;24.20;99.90;;;;;;6324624;28;20214;-64
2023/07/06 06:32:55;;;;;;;3.80;3.47;;;24.10;99.90;;;;;;6324880;28;20681;-64
2023/07/06 06:35:59;;;;;;;5.07;3.50;;;24.00;99.90;;;;;;6324819;28;20310;-64
2023/07/06 06:39:02;;;;;;;5.37;3.30;;;23.90;99.90;;;;;;6324636;28;20230;-64
2023/07/06 06:42:07;;;;;;;4.40;3.33;;;23.90;99.90;;;;;;6324689;28;20218;-64
2023/07/06 06:45:11;;;;;;;3.90;3.23;;;23.80;99.90;;;;;;6325174;28;20220;-64
2023/07/06 06:48:15;;;;;;;3.50;3.07;;;23.70;99.90;;;;;;6325704;28;20311;-63
2023/07/06 06:51:18;;;;;;;3.43;3.13;;;23.80;99.90;;;;;;6326343;28;20209;-63
2023/07/06 06:54:21;;;;;;;4.87;3.40;;;23.80;99.90;;;;;;6326482;28;20212;-63
2023/07/06 06:57:26;;;;;;;6.77;4.20;;;23.90;99.90;;;;;;6326187;28;20228;-63
2023/07/06 07:00:29;;;;;;;7.40;3.43;;;23.90;99.90;;;;;;6325430;28;20238;-64
2023/07/06 07:03:32;;;;;;;4.43;3.23;;;24.00;99.90;;;;;;6325436;28;20304;-64
2023/07/06 07:06:38;;;;;;;6.03;3.70;;;24.60;99.90;;;;;;6325006;28;21607;-64
2023/07/06 07:09:41;;;;;;;4.17;3.40;;;25.40;99.90;;;;;;6323167;28;20244;-64
2023/07/06 07:12:46;;;;;;;3.90;3.37;;;26.10;99.90;;;;;;6324818;28;20232;-64
2023/07/06 07:15:50;;;;;;;3.60;3.30;;;26.50;98.60;;;;;;6324805;28;20645;-64
2023/07/06 07:18:54;;;;;;;4.60;3.40;;;26.50;98.60;;;;;;6324301;28;20231;-64
2023/07/06 07:22:00;;;;;;;5.77;3.73;;;26.80;98.20;;;;;;6325508;28;20217;-64
2023/07/06 07:25:04;;;;;;;3.60;3.23;;;28.50;96.80;;;;;;6324819;28;20217;-64
2023/07/06 07:28:09;;;;;;;5.70;3.00;;;29.50;92.80;;;;;;6324282;28;20238;-65
2023/07/06 07:31:12;;;;;;;3.50;3.20;;;30.40;91.30;;;;;;6321187;28;20232;-65
2023/07/06 07:34:15;;;;;;;5.07;3.10;;;30.00;90.30;;;;;;6313294;28;20302;-65
2023/07/06 07:37:19;;;;;;;4.40;2.87;;;29.30;90.20;;;;;;6324683;28;20240;-65
2023/07/06 07:40:23;;;;;;;4.50;3.00;;;28.70;90.10;;;;;;6324948;28;20314;-65
2023/07/06 07:43:32;;;;;;;4.53;3.40;;;28.50;91.50;;;;;;6324896;28;20308;-65
2023/07/06 07:46:35;;;;;;;3.73;3.40;;;28.70;90.40;;;;;;6324778;28;20677;-65
2023/07/06 07:49:38;;;;;;;4.37;2.93;;;28.40;90.10;;;;;;6324864;28;20245;-65
2023/07/06 07:52:41;;;;;;;4.97;3.60;;;28.20;90.50;;;;;;6324752;28;20371;-65
2023/07/06 07:55:45;;;;;;;3.13;2.67;;;28.10;90.90;;;;;;6324631;28;20308;-65
2023/07/06 07:58:49;;;;;;;2.47;2.27;;;28.00;90.30;;;;;;6323976;28;20303;-65
2023/07/06 08:01:53;;;;;;;3.67;2.40;;;28.00;89.80;;;;;;6323949;28;20221;-65
2023/07/06 08:04:57;;;;;;;4.97;3.37;;;28.00;88.90;;;;;;6324246;28;20296;-65
2023/07/06 08:08:01;;;;;;;3.63;2.93;;;28.10;90.20;;;;;;6324323;28;20235;-65
2023/07/06 08:11:05;;;;;;;4.27;2.60;;;28.20;89.80;;;;;;6323969;28;20304;-65
2023/07/06 08:14:10;;;;;;;3.80;2.87;;;28.30;87.90;;;;;;6324690;28;20232;-65
2023/07/06 08:17:17;;;;;;;4.20;2.83;;;28.30;87.40;;;;;;6324401;28;20316;-65
2023/07/06 08:20:20;;;;;;;4.00;1.87;;;28.40;86.10;;;;;;6324240;28;20633;-65
2023/07/06 08:23:50;;;;;;;3.23;2.40;;;28.70;84.20;;;;;;6324454;28;20241;-65
2023/07/06 08:26:54;;;;;;;3.40;2.43;;;28.60;83.50;;;;;;6324701;28;20217;-64
2023/07/06 08:29:58;;;;;;;3.33;2.50;;;28.70;82.00;;;;;;6323826;28;20228;-65
2023/07/06 08:33:02;;;;;;;4.50;2.53;;;28.90;80.20;;;;;;6321245;28;20221;-64
2023/07/06 08:36:06;;;;;;;3.57;2.53;;;29.10;80.00;;;;;;6323632;28;20236;-64
2023/07/06 08:39:09;;;;;;;2.57;2.17;;;28.70;80.40;;;;;;6318891;28;20669;-63
2023/07/06 08:42:18;;;;;;;3.80;2.87;;;28.90;80.00;;;;;;6323934;28;20276;-64
2023/07/06 08:45:27;;;;;;;2.50;2.30;;;28.70;80.40;;;;;;6323475;28;20209;-65
2023/07/06 08:48:34;;;;;;;2.97;2.23;;;28.90;80.90;;;;;;6323893;28;20547;-64
2023/07/06 08:51:37;;;;;;;3.17;2.60;;;28.90;79.50;;;;;;6323845;28;20221;-65
2023/07/06 08:54:41;;;;;;;4.43;1.93;;;28.60;80.80;;;;;;6324121;28;20228;-65
2023/07/06 08:57:46;;;;;;;4.17;2.10;;;28.10;80.10;;;;;;6323274;28;20222;-64
2023/07/06 09:00:50;;;;;;;3.37;2.73;;;28.00;80.90;;;;;;6323365;28;20235;-64
2023/07/06 09:03:59;;;;;;;3.50;2.60;;;27.90;80.20;;;;;;6323546;28;20300;-64
2023/07/06 09:07:03;;;;;;;4.63;2.60;;;28.00;81.30;;;;;;6323397;28;20236;-64
2023/07/06 09:10:11;;;;;;;3.70;2.67;;;28.20;81.00;;;;;;6326590;28;20236;-65
2023/07/06 09:13:30;;;;;;;4.33;2.90;;;28.10;80.50;;;;;;6328150;28;20218;-65
2023/07/06 09:16:39;;;;;;;2.60;2.40;;;27.90;82.20;;;;;;6328057;28;20312;-61
2023/07/06 09:19:42;;;;;;;2.43;2.23;;;27.50;81.80;;;;;;6328070;28;20230;-65
2023/07/06 09:22:45;;;;;;;4.73;3.10;;;26.80;83.40;;;;;;6328377;28;20267;-64
2023/07/06 09:25:49;;;;;;;3.03;2.57;;;26.70;83.90;;;;;;6327320;28;20703;-62
2023/07/06 09:29:12;;;;;;;2.40;2.20;;;26.60;83.90;;;;;;6327392;28;20318;-63
2023/07/06 09:32:19;;;;;;;2.70;2.50;;;26.50;84.70;;;;;;6326366;28;20252;-63
2023/07/06 09:35:22;;;;;;;3.43;2.50;;;26.80;84.60;;;;;;6326393;28;20241;-63
2023/07/06 09:38:27;;;;;;;3.80;2.60;;;27.00;84.30;;;;;;6327158;28;20278;-63
2023/07/06 09:41:32;;;;;;;3.10;2.70;;;27.10;83.90;;;;;;6317871;28;20312;-63
2023/07/06 09:44:35;;;;;;;3.30;2.73;;;26.90;84.70;;;;;;6327744;28;20684;-64
2023/07/06 09:47:48;;;;;;;5.03;2.87;;;26.90;85.20;;;;;;6327434;28;20229;-64
2023/07/06 09:50:55;;;;;;;3.77;2.83;;;26.80;85.40;;;;;;6326808;28;20309;-64
2023/07/06 09:54:03;;;;;;;2.80;2.60;;;26.60;85.70;;;;;;6327425;28;20244;-64
2023/07/06 09:57:13;;;;;;;2.77;2.43;;;26.60;86.50;;;;;;6326870;28;20237;-63
2023/07/06 10:00:18;;;;;;;3.83;3.20;;;26.40;86.80;;;;;;6326941;28;20573;-63
2023/07/06 10:03:35;;;;;;;3.47;2.30;;;26.40;86.80;;;;;;6326410;28;20620;-63
2023/07/06 10:06:51;;;;;;;5.50;2.97;;;26.30;87.30;;;;;;6326711;28;20689;-64
2023/07/06 10:10:11;;;;;;;2.83;2.53;;;26.50;87.00;;;;;;6327080;28;20253;-64
2023/07/06 10:13:27;;;;;;;3.40;2.90;;;26.70;87.10;;;;;;6326109;28;20222;-64
2023/07/06 10:16:42;;;;;;;5.63;3.10;;;26.70;86.20;;;;;;6326639;28;20236;-64
2023/07/06 10:19:54;;;;;;;3.00;2.70;;;26.60;87.50;;;;;;6326027;28;20226;-64
2023/07/06 10:23:09;;;;;;;2.97;2.20;;;26.80;86.70;;;;;;6326215;28;20230;-64
2023/07/06 10:26:21;;;;;;;4.53;3.30;;;27.00;87.40;;;;;;6326245;28;20308;-64
2023/07/06 10:29:29;;;;;;;3.10;2.80;;;27.20;86.20;;;;;;6326130;28;20234;-63
2023/07/06 10:32:38;;;;;;;6.23;2.97;;;27.40;85.90;;;;;;6326258;28;20221;-63
2023/07/06 10:35:46;;;;;;;4.27;3.13;;;27.60;84.90;;;;;;6325622;28;20237;-63
2023/07/06 10:38:50;;;;;;;3.30;3.00;;;27.60;83.40;;;;;;6325357;28;20233;-64
2023/07/06 10:42:00;;;;;;;2.93;2.53;;;27.10;85.00;;;;;;6325603;28;20670;-64
2023/07/06 10:45:21;;;;;;;3.00;2.70;;;26.90;85.70;;;;;;6321145;28;20252;-65
2023/07/06 10:48:30;;;;;;;3.90;3.27;;;26.70;85.90;;;;;;6325775;28;20553;-64
2023/07/06 10:51:47;;;;;;;5.40;3.20;;;26.50;85.90;;;;;;6326397;28;20656;-65
2023/07/06 10:54:56;;;;;;;3.30;3.00;;;26.60;86.20;;;;;;6325845;28;20230;-64
2023/07/06 10:58:17;;;;;;;3.43;3.13;;;26.70;85.90;;;;;;6325495;28;20279;-65
2023/07/06 11:01:21;;;;;;;3.20;2.80;;;26.90;85.80;;;;;;6325122;28;20225;-65
2023/07/06 11:04:52;;;;;;;4.97;3.40;;;27.00;85.60;;;;;;6325671;28;20298;-65
2023/07/06 11:07:59;;;;;;;3.17;2.93;;;27.20;84.70;;;;;;6324913;28;20229;-64
2023/07/06 11:11:03;;;;;;;4.33;3.23;;;27.50;83.70;;;;;;6324748;28;20575;-64
2023/07/06 11:14:33;;;;;;;4.03;3.10;;;27.80;82.90;;;;;;6324974;28;20227;-64
2023/07/06 11:17:40;;;;;;;4.97;3.00;;;27.80;82.40;;;;;;6321997;28;20233;-64
2023/07/06 11:20:53;;;;;;;3.70;2.70;;;27.70;84.10;;;;;;6324795;28;20240;-64
2023/07/06 11:24:02;;;;;;;3.80;2.80;;;28.00;83.00;;;;;;6324871;28;20558;-64
2023/07/06 11:27:12;;;;;;;5.87;4.17;;;28.10;82.80;;;;;;6324685;28;20243;-64
2023/07/06 11:30:22;;;;;;;3.87;3.47;;;28.30;81.70;;;;;;6324982;28;20224;-64
2023/07/06 11:33:38;;;;;;;3.27;2.83;;;28.40;81.80;;;;;;6324369;28;20186;-64
2023/07/06 11:36:55;;;;;;;5.77;3.20;;;28.60;81.70;;;;;;6324825;28;20602;-63
2023/07/06 11:40:10;;;;;;;3.40;3.10;;;28.80;80.00;;;;;;6325115;28;20221;-65
2023/07/06 11:43:34;;;;;;;4.60;3.50;;;28.60;79.70;;;;;;6324554;28;20253;-64
2023/07/06 11:46:47;;;;;;;5.20;3.17;;;28.50;79.70;;;;;;6324851;28;20229;-63
2023/07/06 11:49:53;;;;;;;4.40;3.57;;;28.70;79.20;;;;;;6324876;28;20233;-63
2023/07/06 11:53:09;;;;;;;3.23;2.90;;;28.70;78.20;;;;;;6324417;28;20241;-63
2023/07/06 11:56:32;;;;;;;3.40;3.07;;;27.90;79.50;;;;;;6324438;28;20226;-64
2023/07/06 11:59:37;;;;;;;3.47;3.17;;;27.90;81.30;;;;;;6324358;28;20293;-64
2023/07/06 12:02:40;;;;;;;4.70;3.07;;;27.30;83.10;;;;;;6324554;28;20226;-64
2023/07/06 12:05:47;;;;;;;4.00;3.47;;;27.00;82.90;;;;;;6323863;28;20229;-64
2023/07/06 12:08:55;;;;;;;4.67;2.93;;;27.00;84.00;;;;;;6324279;28;20226;-64
2023/07/06 12:12:05;;;;;;;3.63;2.67;;;27.40;83.40;;;;;;6324099;28;20241;-65
2023/07/06 12:15:13;;;;;;;3.90;3.57;;;27.50;82.40;;;;;;6324102;28;20248;-65
2023/07/06 12:18:20;;;;;;;3.43;2.90;;;27.30;82.40;;;;;;6324401;28;20222;-65
2023/07/06 12:21:27;;;;;;;3.83;3.07;;;27.40;82.20;;;;;;6324347;28;20206;-65
2023/07/06 12:24:32;;;;;;;4.07;3.67;;;27.70;82.00;;;;;;6324244;28;20606;-65
2023/07/06 12:27:39;;;;;;;3.60;3.30;;;27.80;80.80;;;;;;6323953;28;20237;-65
2023/07/06 12:30:44;;;;;;;4.20;3.27;;;28.00;80.40;;;;;;6324088;28;20221;-64
2023/07/06 12:33:47;;;;;;;4.47;3.43;;;28.30;78.50;;;;;;6324942;28;20235;-65
2023/07/06 12:36:55;;;;;;;3.70;3.30;;;28.60;77.70;;;;;;6324752;28;20328;-65
2023/07/06 12:39:58;;;;;;;5.00;2.93;;;28.60;77.70;;;;;;6324353;28;20230;-65
2023/07/06 12:43:03;;;;;;;4.20;3.27;;;28.70;77.80;;;;;;6325764;28;20225;-65
2023/07/06 12:46:08;;;;;;;3.50;3.20;;;28.90;77.80;;;;;;6328960;28;20225;-65
2023/07/06 12:49:20;;;;;;;4.27;3.87;;;29.10;77.30;;;;;;6328838;28;20225;-64
2023/07/06 12:52:24;;;;;;;4.20;3.17;;;29.20;75.30;;;;;;6319207;28;20378;-64
2023/07/06 12:55:33;;;;;;;4.10;3.27;;;29.10;75.40;;;;;;6328143;28;20672;-64
2023/07/06 12:58:38;;;;;;;4.97;3.70;;;29.20;74.40;;;;;;6328414;28;20229;-64
2023/07/06 13:01:43;;;;;;;4.73;3.20;;;29.30;74.00;;;;;;6328169;28;20226;-64
2023/07/06 13:04:47;;;;;;;5.80;3.77;;;29.30;73.90;;;;;;6328474;28;20229;-64
2023/07/06 13:07:51;;;;;;;4.33;3.03;;;29.10;73.00;;;;;;6328114;28;20697;-64
2023/07/06 13:11:00;;;;;;;4.70;4.30;;;28.70;73.70;;;;;;6328426;28;20225;-64
2023/07/06 13:14:08;;;;;;;3.80;3.40;;;28.50;73.50;;;;;;6328902;28;20225;-64
2023/07/06 13:17:14;;;;;;;3.43;3.13;;;28.40;74.30;;;;;;6328199;28;20240;-64
2023/07/06 13:20:18;;;;;;;4.20;3.80;;;27.90;76.40;;;;;;6328127;28;20240;-64
2023/07/06 13:23:21;;;;;;;3.67;3.20;;;27.40;77.20;;;;;;6327634;28;20226;-64
2023/07/06 13:26:26;;;;;;;3.63;3.33;;;27.50;77.80;;;;;;6327772;28;20245;-64
2023/07/06 13:29:34;;;;;;;5.50;3.60;;;27.80;77.00;;;;;;6327727;28;20233;-64
2023/07/06 13:32:37;;;;;;;3.70;3.30;;;27.90;76.70;;;;;;6327714;28;20217;-64
2023/07/06 13:35:41;;;;;;;4.37;3.23;;;28.00;76.70;;;;;;6327278;28;20252;-64
2023/07/06 13:38:46;;;;;;;3.50;3.20;;;28.20;76.90;;;;;;6327354;28;20814;-65
2023/07/06 13:41:49;;;;;;;4.20;3.80;;;28.40;76.60;;;;;;6327121;28;20238;-65
2023/07/06 13:44:54;;;;;;;3.63;3.20;;;28.20;75.50;;;;;;6327547;28;20366;-65
2023/07/06 13:47:57;;;;;;;3.77;3.40;;;28.20;76.40;;;;;;6327305;28;20225;-65
2023/07/06 13:51:02;;;;;;;4.90;3.10;;;28.00;76.50;;;;;;6327377;28;20252;-65
2023/07/06 13:54:05;;;;;;;3.20;2.90;;;27.80;76.80;;;;;;6326826;28;20236;-65
2023/07/06 13:57:09;;;;;;;3.60;3.30;;;27.70;77.70;;;;;;6318185;28;20316;-64
2023/07/06 14:00:14;;;;;;;4.33;3.00;;;27.50;77.80;;;;;;6327538;28;20213;-64
2023/07/06 14:03:20;;;;;;;3.77;2.93;;;27.40;78.50;;;;;;6327838;28;20216;-65
2023/07/06 14:06:24;;;;;;;3.87;3.47;;;27.30;78.80;;;;;;6327518;28;20267;-65
2023/07/06 14:09:27;;;;;;;4.10;2.90;;;27.00;79.30;;;;;;6327390;28;20201;-64
2023/07/06 14:12:30;;;;;;;4.43;3.10;;;27.00;79.20;;;;;;6326415;28;20644;-64
2023/07/06 14:15:37;;;;;;;3.00;2.70;;;26.80;79.10;;;;;;6327049;28;20221;-64
2023/07/06 14:18:40;;;;;;;3.70;3.13;;;26.80;79.00;;;;;;6327381;28;20240;-64
2023/07/06 14:21:44;;;;;;;4.60;3.70;;;26.80;79.60;;;;;;6327210;28;20690;-64
2023/07/06 14:24:48;;;;;;;3.43;2.90;;;26.80;79.10;;;;;;6326750;28;20225;-65
2023/07/06 14:27:53;;;;;;;3.90;3.23;;;26.70;79.30;;;;;;6326761;28;20250;-64
2023/07/06 14:31:02;;;;;;;3.50;3.03;;;26.60;80.10;;;;;;6326932;28;20310;-64
2023/07/06 14:34:06;;;;;;;5.00;3.50;;;26.70;80.80;;;;;;6326952;28;20222;-64
2023/07/06 14:37:09;;;;;;;4.57;3.23;;;26.70;90.20;;;;;;6326588;28;20243;-65
2023/07/06 14:40:13;;;;;;;3.83;3.47;;;26.60;92.10;;;;;;6326757;28;20233;-65
2023/07/06 14:43:16;;;;;;;3.67;3.10;;;26.50;92.40;;;;;;6326038;28;20580;-65
2023/07/06 14:46:21;;;;;;;3.80;3.17;;;26.30;92.10;;;;;;6326688;28;20673;-65
2023/07/06 14:49:24;;;;;;;3.77;3.47;;;26.10;92.50;;;;;;6326365;28;20226;-65
2023/07/06 14:52:28;;;;;;;4.30;2.67;;;26.00;92.90;;;;;;6326613;28;20217;-65
2023/07/06 14:55:31;;;;;;;4.33;3.20;;;25.90;93.20;;;;;;6325568;28;20244;-65
2023/07/06 14:58:36;;;;;;;3.60;3.30;;;25.90;93.70;;;;;;6321319;28;20246;-65
2023/07/06 15:01:40;;;;;;;4.60;3.27;;;25.90;93.60;;;;;;6325247;28;20544;-65
2023/07/06 15:04:47;;;;;;;3.93;3.53;;;25.80;93.70;;;;;;6325252;28;20241;-65
2023/07/06 15:07:50;;;;;;;4.93;3.50;;;25.60;94.60;;;;;;6325539;28;20240;-64
2023/07/06 15:10:53;;;;;;;6.03;3.43;;;25.50;95.00;;;;;;6325277;28;20240;-64
2023/07/06 15:13:56;;;;;;;3.97;3.40;;;25.50;95.50;;;;;;6325348;28;20225;-64
2023/07/06 15:17:02;;;;;;;4.03;3.43;;;25.40;95.90;;;;;;6324975;28;20238;-65
2023/07/06 15:20:06;;;;;;;5.13;3.80;;;25.50;96.10;;;;;;6325159;28;20236;-65
2023/07/06 15:23:10;;;;;;;4.70;3.70;;;25.40;96.00;;;;;;6324838;28;20226;-65
2023/07/06 15:26:13;;;;;;;4.03;3.60;;;25.40;96.10;;;;;;6324930;28;20568;-65
2023/07/06 15:29:16;;;;;;;3.50;3.00;;;25.30;96.10;;;;;;6327130;28;20682;-65
2023/07/06 15:32:21;;;;;;;3.80;3.50;;;25.20;96.40;;;;;;6327456;28;20298;-65
2023/07/06 15:35:24;;;;;;;4.20;3.80;;;25.00;95.90;;;;;;6325378;28;20236;-64
2023/07/06 15:38:28;;;;;;;4.83;3.40;;;24.90;96.40;;;;;;6324224;28;20233;-63
2023/07/06 15:41:32;;;;;;;7.10;4.30;;;24.80;97.40;;;;;;6324484;28;20313;-65
2023/07/06 15:44:35;;;;;;;3.60;3.30;;;24.60;98.00;;;;;;6325110;28;20221;-63
2023/07/06 15:47:40;;;;;;;4.30;3.87;;;24.30;98.30;;;;;;6324790;28;20225;-63
2023/07/06 15:50:59;;;;;;;5.27;4.27;;;24.10;98.70;;;;;;6324531;28;20237;-64
2023/07/06 15:54:03;;;;;;;5.60;4.60;;;24.00;98.80;;;;;;6324679;28;20313;-64
2023/07/06 15:57:06;;;;;;;4.07;3.70;;;23.80;98.90;;;;;;6324408;28;20321;-63
2023/07/06 16:00:10;;;;;;;5.30;4.00;;;23.60;99.20;;;;;;6325051;28;20229;-63
2023/07/06 16:03:15;;;;;;;5.33;4.83;;;23.60;99.70;;;;;;6324199;28;20226;-64
2023/07/06 16:06:21;;;;;;;5.40;4.23;;;23.50;99.90;;;;;;6324323;28;20271;-64
2023/07/06 16:09:24;;;;;;;5.40;4.60;;;23.30;99.90;;;;;;6324384;28;20250;-63
2023/07/06 16:12:27;;;;;;;4.53;4.13;;;23.30;99.90;;;;;;6324174;28;20202;-64